Time;durP1;ratioP1;P1;durP2;ratioP2;P2;SDS_P1;SDS_P2;PMS_P1;PMS_P2;Temp;Humidity;BMP_temperature;BMP_pressure;BME280_temperature;BME280_humidity;BME280_pressure;Samples;Min_cycle;Max_cycle;Signal;HPM_P1;HPM_P2
2024/04/10 00:00:57;;;;;;;10.00;4.87;;;9.90;99.90;;;;;;5381670;26;20222;-74
2024/04/10 00:03:23;;;;;;;11.83;5.40;;;9.80;99.90;;;;;;5381096;26;20313;-76
2024/04/10 00:05:59;;;;;;;9.93;4.40;;;9.80;99.90;;;;;;5381981;26;20353;-74
2024/04/10 00:08:25;;;;;;;8.63;4.20;;;9.80;99.90;;;;;;5381409;26;20275;-74
2024/04/10 00:10:51;;;;;;;17.17;4.80;;;9.80;99.90;;;;;;5381085;26;20225;-73
2024/04/10 00:13:17;;;;;;;10.63;4.40;;;9.70;99.90;;;;;;5380986;26;20760;-74
2024/04/10 00:15:43;;;;;;;8.63;4.23;;;9.70;99.90;;;;;;5380934;26;20527;-74
2024/04/10 00:18:09;;;;;;;12.57;5.10;;;9.70;99.90;;;;;;5380567;26;20314;-74
2024/04/10 00:20:36;;;;;;;10.37;4.80;;;9.80;99.90;;;;;;5380745;26;20279;-70
2024/04/10 00:23:05;;;;;;;8.90;4.90;;;9.80;99.90;;;;;;5380577;26;20225;-73
2024/04/10 00:25:31;;;;;;;13.23;4.80;;;9.80;99.90;;;;;;5381674;26;20298;-73
2024/04/10 00:27:58;;;;;;;14.57;4.53;;;9.90;99.90;;;;;;5380865;26;20293;-74
2024/04/10 00:30:23;;;;;;;11.40;4.67;;;9.90;99.90;;;;;;5380728;26;20275;-73
2024/04/10 00:32:49;;;;;;;8.70;4.50;;;9.90;99.90;;;;;;5379898;26;20241;-71
2024/04/10 00:35:14;;;;;;;11.23;5.07;;;10.00;99.90;;;;;;5380564;26;20213;-70
2024/04/10 00:37:40;;;;;;;13.00;4.33;;;10.00;99.90;;;;;;5380642;26;20588;-74
2024/04/10 00:40:08;;;;;;;8.77;4.83;;;10.00;99.90;;;;;;5380314;26;20221;-76
2024/04/10 00:42:34;;;;;;;14.17;4.30;;;10.00;99.90;;;;;;5380117;26;20315;-73
2024/04/10 00:44:59;;;;;;;9.57;4.33;;;10.00;99.90;;;;;;5380531;26;20721;-74
2024/04/10 00:47:25;;;;;;;11.20;4.30;;;10.00;99.90;;;;;;5379442;26;20225;-74
2024/04/10 00:49:51;;;;;;;9.93;4.37;;;10.00;99.90;;;;;;5380165;26;20703;-71
2024/04/10 00:52:18;;;;;;;10.53;4.37;;;10.00;99.90;;;;;;5380554;26;20229;-74
2024/04/10 00:54:45;;;;;;;12.40;4.03;;;9.90;99.90;;;;;;5380364;26;20213;-74
2024/04/10 00:57:11;;;;;;;14.47;4.50;;;9.90;99.90;;;;;;5380257;26;20272;-73
2024/04/10 00:59:38;;;;;;;8.97;4.40;;;9.80;99.90;;;;;;5379762;26;20221;-72
2024/04/10 01:02:05;;;;;;;9.87;4.27;;;9.70;99.90;;;;;;5407955;26;20233;-74
2024/04/10 01:04:31;;;;;;;9.87;4.07;;;9.60;99.90;;;;;;5380173;26;20750;-75
2024/04/10 01:06:56;;;;;;;15.27;4.60;;;9.50;99.90;;;;;;5380042;26;20218;-75
2024/04/10 01:09:22;;;;;;;11.27;4.77;;;9.50;99.90;;;;;;5380138;26;20229;-74
2024/04/10 01:11:48;;;;;;;9.30;4.23;;;9.40;99.90;;;;;;5379698;26;20279;-75
2024/04/10 01:14:13;;;;;;;14.30;4.43;;;9.30;99.90;;;;;;5380790;26;20206;-72
2024/04/10 01:16:39;;;;;;;9.47;3.90;;;9.30;99.90;;;;;;5379495;26;20334;-70
2024/04/10 01:19:06;;;;;;;10.63;4.13;;;9.20;99.90;;;;;;5380111;26;20218;-71
2024/04/10 01:21:32;;;;;;;9.37;4.90;;;9.20;99.90;;;;;;5379954;26;20386;-70
2024/04/10 01:23:57;;;;;;;10.87;4.30;;;9.20;99.90;;;;;;5377554;26;20241;-75
2024/04/10 01:26:23;;;;;;;6.27;3.57;;;9.10;99.90;;;;;;5380267;26;20260;-72
2024/04/10 01:28:48;;;;;;;12.20;4.43;;;9.10;99.90;;;;;;5379101;26;20273;-75
2024/04/10 01:31:14;;;;;;;7.07;3.87;;;9.00;99.90;;;;;;5379649;26;20759;-70
2024/04/10 01:33:39;;;;;;;11.13;4.13;;;9.00;99.90;;;;;;5377930;26;20314;-75
2024/04/10 01:36:06;;;;;;;6.20;3.77;;;9.00;99.90;;;;;;5379684;26;20272;-71
2024/04/10 01:38:32;;;;;;;9.63;3.53;;;9.00;99.90;;;;;;5379357;26;20217;-72
2024/04/10 01:40:57;;;;;;;12.87;5.00;;;9.00;99.90;;;;;;5378933;26;20609;-75
2024/04/10 01:43:23;;;;;;;11.13;4.67;;;9.00;99.90;;;;;;5379310;26;20226;-75
2024/04/10 01:45:49;;;;;;;6.30;3.77;;;9.00;99.90;;;;;;5379752;26;20306;-73
2024/04/10 01:48:14;;;;;;;15.20;4.57;;;9.00;99.90;;;;;;5379116;26;20277;-71
2024/04/10 01:50:40;;;;;;;8.60;4.00;;;8.90;99.90;;;;;;5379163;26;20317;-75
2024/04/10 01:53:05;;;;;;;8.57;4.00;;;8.90;99.90;;;;;;5379180;26;20241;-74
2024/04/10 01:55:31;;;;;;;12.47;4.23;;;8.90;99.90;;;;;;5379720;26;20213;-75
2024/04/10 01:57:56;;;;;;;13.13;4.30;;;8.80;99.90;;;;;;5379325;26;20603;-74
2024/04/10 02:00:24;;;;;;;14.77;4.43;;;8.80;99.90;;;;;;5379030;26;20221;-71
2024/04/10 02:02:50;;;;;;;11.43;4.80;;;8.80;99.90;;;;;;5379320;26;20237;-75
2024/04/10 02:05:15;;;;;;;18.83;4.70;;;8.70;99.90;;;;;;5381909;26;20217;-72
2024/04/10 02:07:42;;;;;;;16.33;5.53;;;8.70;99.90;;;;;;5381746;26;20276;-73
2024/04/10 02:10:07;;;;;;;10.03;4.47;;;8.70;99.90;;;;;;5382362;26;20755;-76
2024/04/10 02:12:33;;;;;;;9.20;4.63;;;8.70;99.90;;;;;;5383003;26;20263;-75
2024/04/10 02:14:58;;;;;;;13.60;4.40;;;8.70;99.90;;;;;;5383974;26;20237;-73
2024/04/10 02:17:24;;;;;;;13.80;4.30;;;8.60;99.90;;;;;;5381842;26;20217;-74
2024/04/10 02:19:50;;;;;;;10.80;4.20;;;8.60;99.90;;;;;;5379923;26;20210;-75
2024/04/10 02:22:16;;;;;;;9.90;4.00;;;8.50;99.90;;;;;;5379496;26;20230;-75
2024/04/10 02:24:41;;;;;;;13.33;5.03;;;8.60;99.90;;;;;;5379211;26;20326;-75
2024/04/10 02:27:07;;;;;;;12.30;4.00;;;8.50;99.90;;;;;;5377573;26;20259;-75
2024/04/10 02:29:33;;;;;;;17.40;4.73;;;8.50;99.90;;;;;;5377215;26;20245;-74
2024/04/10 02:31:59;;;;;;;11.27;4.60;;;8.40;99.90;;;;;;5378850;26;20275;-74
2024/04/10 02:34:26;;;;;;;12.50;4.90;;;8.40;99.90;;;;;;5379320;26;20333;-75
2024/04/10 02:36:51;;;;;;;7.50;4.00;;;8.40;99.90;;;;;;5379186;26;20289;-75
2024/04/10 02:39:17;;;;;;;7.83;4.23;;;8.30;99.90;;;;;;5379246;26;20217;-75
2024/04/10 02:41:43;;;;;;;16.73;4.20;;;8.30;99.90;;;;;;5378620;26;20252;-75
2024/04/10 02:44:08;;;;;;;9.50;4.33;;;8.30;99.90;;;;;;5379750;26;20576;-74
2024/04/10 02:46:34;;;;;;;12.83;4.50;;;8.20;99.90;;;;;;5379330;26;20213;-75
2024/04/10 02:48:59;;;;;;;8.93;4.60;;;8.20;99.90;;;;;;5378999;26;20205;-75
2024/04/10 02:51:25;;;;;;;12.07;4.80;;;8.20;99.90;;;;;;5379247;26;20209;-74
2024/04/10 02:53:50;;;;;;;10.63;4.33;;;8.20;99.90;;;;;;5378574;26;20318;-75
2024/04/10 02:56:20;;;;;;;13.17;4.47;;;8.20;99.90;;;;;;5379198;26;20225;-73
2024/04/10 02:58:46;;;;;;;10.47;4.07;;;8.10;99.90;;;;;;5378533;26;20330;-75
2024/04/10 03:01:12;;;;;;;12.47;4.53;;;8.10;99.90;;;;;;5379109;26;20716;-75
2024/04/10 03:03:37;;;;;;;14.27;4.73;;;8.00;99.90;;;;;;5378601;26;20272;-72
2024/04/10 03:06:04;;;;;;;9.43;4.93;;;8.00;99.90;;;;;;5379396;26;20221;-75
2024/04/10 03:08:30;;;;;;;10.83;5.30;;;8.00;99.90;;;;;;5378448;26;20276;-75
2024/04/10 03:10:56;;;;;;;12.97;4.43;;;8.10;99.90;;;;;;5380241;26;20209;-75
2024/04/10 03:13:22;;;;;;;12.50;5.03;;;8.00;99.90;;;;;;5382062;26;20574;-75
2024/04/10 03:15:47;;;;;;;11.23;4.67;;;8.00;99.90;;;;;;5382552;26;20210;-75
2024/04/10 03:18:13;;;;;;;17.13;5.13;;;8.00;99.90;;;;;;5381882;26;20226;-75
2024/04/10 03:20:39;;;;;;;12.93;5.27;;;7.90;99.90;;;;;;5382131;26;20239;-75
2024/04/10 03:23:04;;;;;;;10.67;4.43;;;7.90;99.90;;;;;;5381848;26;20225;-74
2024/04/10 03:25:33;;;;;;;11.20;4.83;;;7.90;99.90;;;;;;5381718;26;20222;-75
2024/04/10 03:27:59;;;;;;;12.40;4.83;;;7.80;99.90;;;;;;5381488;26;20647;-75
2024/04/10 03:30:26;;;;;;;7.67;4.67;;;7.90;99.90;;;;;;5381980;26;20229;-75
2024/04/10 03:32:52;;;;;;;13.23;4.87;;;7.80;99.90;;;;;;5381638;26;20283;-74
2024/04/10 03:35:18;;;;;;;9.60;4.60;;;7.80;99.90;;;;;;5381624;26;20241;-74
2024/04/10 03:37:45;;;;;;;10.23;4.77;;;7.80;99.90;;;;;;5381703;26;20289;-74
2024/04/10 03:40:11;;;;;;;15.17;4.70;;;7.70;99.90;;;;;;5381775;26;20221;-75
2024/04/10 03:42:37;;;;;;;8.73;4.93;;;7.70;99.90;;;;;;5381473;26;20248;-75
2024/04/10 03:45:03;;;;;;;12.70;4.83;;;7.70;99.90;;;;;;5382025;26;20217;-76
2024/04/10 03:47:29;;;;;;;15.77;4.50;;;7.70;99.90;;;;;;5381256;26;20229;-75
2024/04/10 03:49:55;;;;;;;18.80;5.23;;;7.70;99.90;;;;;;5381572;26;20322;-75
2024/04/10 03:52:20;;;;;;;9.53;4.10;;;7.70;99.90;;;;;;5381447;26;20333;-76
2024/04/10 03:54:46;;;;;;;11.50;4.73;;;7.70;99.90;;;;;;5381634;26;20205;-75
2024/04/10 03:57:11;;;;;;;21.40;5.40;;;7.60;99.90;;;;;;5381086;26;20225;-75
2024/04/10 03:59:37;;;;;;;11.10;4.77;;;7.60;99.90;;;;;;5381801;26;20221;-75
2024/04/10 04:02:03;;;;;;;16.50;5.13;;;7.60;99.90;;;;;;5381828;26;20398;-75
2024/04/10 04:04:29;;;;;;;16.13;5.03;;;7.60;99.90;;;;;;5381420;26;20713;-75
2024/04/10 04:06:55;;;;;;;9.40;4.67;;;7.50;99.90;;;;;;5382520;26;20260;-75
2024/04/10 04:09:21;;;;;;;11.60;4.90;;;7.50;99.90;;;;;;5379552;26;20213;-75
2024/04/10 04:11:46;;;;;;;17.93;4.50;;;7.50;99.90;;;;;;5381760;26;20579;-75
2024/04/10 04:14:12;;;;;;;13.97;5.33;;;7.50;99.90;;;;;;5381659;26;20275;-75
2024/04/10 04:16:38;;;;;;;11.90;4.70;;;7.40;99.90;;;;;;5381659;26;20213;-75
2024/04/10 04:19:03;;;;;;;17.70;5.23;;;7.40;99.90;;;;;;5380582;26;20271;-76
2024/04/10 04:21:31;;;;;;;9.73;4.10;;;7.40;99.90;;;;;;5381269;26;20225;-72
2024/04/10 04:24:00;;;;;;;12.07;4.60;;;7.40;99.90;;;;;;5381007;26;20276;-75
2024/04/10 04:26:25;;;;;;;9.97;5.20;;;7.40;99.90;;;;;;5380833;26;20256;-75
2024/04/10 04:28:52;;;;;;;13.73;4.87;;;7.40;99.90;;;;;;5378251;26;20233;-75
2024/04/10 04:31:18;;;;;;;11.20;5.40;;;7.40;99.90;;;;;;5380547;26;20272;-75
2024/04/10 04:33:44;;;;;;;17.53;5.27;;;7.40;99.90;;;;;;5380190;26;20225;-75
2024/04/10 04:36:10;;;;;;;8.77;4.63;;;7.30;99.90;;;;;;5380460;26;20225;-75
2024/04/10 04:38:36;;;;;;;16.90;5.33;;;7.40;99.90;;;;;;5380804;26;20284;-75
2024/04/10 04:41:03;;;;;;;11.73;4.50;;;7.40;99.90;;;;;;5380462;26;20705;-75
2024/04/10 04:43:29;;;;;;;15.50;5.23;;;7.40;99.90;;;;;;5380509;26;20604;-75
2024/04/10 04:45:54;;;;;;;13.53;4.87;;;7.40;99.90;;;;;;5380619;26;20205;-75
2024/04/10 04:48:20;;;;;;;10.37;5.10;;;7.40;99.90;;;;;;5380144;26;20221;-75
2024/04/10 04:50:48;;;;;;;15.43;6.00;;;7.40;99.90;;;;;;5378746;26;20701;-76
2024/04/10 04:53:14;;;;;;;10.90;4.70;;;7.40;99.90;;;;;;5380057;26;20284;-75
2024/04/10 04:55:43;;;;;;;15.27;5.00;;;7.40;99.90;;;;;;5380684;26;20295;-75
2024/04/10 04:58:10;;;;;;;21.67;6.17;;;7.40;99.90;;;;;;5379947;26;20233;-75
2024/04/10 05:00:36;;;;;;;10.00;5.20;;;7.40;99.90;;;;;;5380024;26;20276;-75
2024/04/10 05:03:03;;;;;;;9.37;5.43;;;7.40;99.90;;;;;;5380056;26;20225;-75
2024/04/10 05:05:33;;;;;;;18.60;5.63;;;7.40;99.90;;;;;;5380530;26;20285;-75
2024/04/10 05:07:59;;;;;;;13.63;5.27;;;7.40;99.90;;;;;;5380011;26;20272;-75
2024/04/10 05:10:24;;;;;;;16.93;4.87;;;7.50;99.90;;;;;;5379374;26;20241;-75
2024/04/10 05:12:50;;;;;;;12.83;5.63;;;7.50;99.90;;;;;;5379984;26;20289;-75
2024/04/10 05:15:15;;;;;;;11.53;5.17;;;7.50;99.90;;;;;;5378486;26;20272;-75
2024/04/10 05:17:43;;;;;;;17.83;5.27;;;7.60;99.90;;;;;;5380257;26;20237;-75
2024/04/10 05:20:13;;;;;;;12.93;4.90;;;7.60;99.90;;;;;;5379568;26;20221;-74
2024/04/10 05:22:39;;;;;;;16.47;5.17;;;7.60;99.90;;;;;;5380117;26;20337;-75
2024/04/10 05:25:05;;;;;;;10.83;5.30;;;7.70;99.90;;;;;;5379721;26;20267;-74
2024/04/10 05:27:32;;;;;;;11.00;5.03;;;7.70;99.90;;;;;;5379671;26;20226;-75
2024/04/10 05:30:06;;;;;;;15.07;4.97;;;7.80;99.90;;;;;;5380069;26;20264;-75
2024/04/10 05:32:35;;;;;;;10.80;4.97;;;7.80;99.90;;;;;;5379235;26;20291;-73
2024/04/10 05:35:01;;;;;;;11.67;4.40;;;7.90;99.90;;;;;;5379247;26;20225;-74
2024/04/10 05:37:27;;;;;;;10.63;5.17;;;8.00;99.90;;;;;;5379313;26;20256;-74
2024/04/10 05:40:06;;;;;;;14.30;4.80;;;8.10;99.90;;;;;;5380375;26;20225;-77
2024/04/10 05:42:36;;;;;;;14.13;5.53;;;8.20;99.90;;;;;;5379593;26;20326;-74
2024/04/10 05:45:08;;;;;;;14.00;5.17;;;8.40;99.90;;;;;;5379534;26;20275;-73
2024/04/10 05:47:37;;;;;;;11.20;5.17;;;8.50;99.90;;;;;;5379542;26;20693;-74
2024/04/10 05:50:03;;;;;;;10.30;4.93;;;8.60;99.90;;;;;;5379477;26;20634;-74
2024/04/10 05:52:29;;;;;;;8.47;5.30;;;8.70;99.90;;;;;;5379445;26;20229;-74
2024/04/10 05:54:55;;;;;;;17.80;4.53;;;8.80;99.90;;;;;;5379380;26;20334;-74
2024/04/10 05:57:24;;;;;;;9.07;4.57;;;9.00;99.90;;;;;;5379602;26;20271;-74
2024/04/10 05:59:54;;;;;;;12.83;4.67;;;9.00;99.90;;;;;;5378764;26;20217;-73
2024/04/10 06:02:21;;;;;;;10.80;4.90;;;9.10;99.90;;;;;;5379757;26;20229;-74
2024/04/10 06:04:53;;;;;;;11.63;4.87;;;9.30;99.90;;;;;;5376717;26;20225;-74
2024/04/10 06:07:20;;;;;;;11.67;4.40;;;9.40;99.90;;;;;;5379417;26;20775;-74
2024/04/10 06:09:50;;;;;;;9.33;5.03;;;9.40;99.90;;;;;;5379005;26;20275;-74
2024/04/10 06:12:16;;;;;;;17.20;4.93;;;9.40;99.90;;;;;;5379559;26;20282;-73
2024/04/10 06:14:42;;;;;;;11.37;4.83;;;9.40;99.90;;;;;;5379329;26;20221;-74
2024/04/10 06:17:07;;;;;;;16.37;5.70;;;9.50;99.90;;;;;;5378694;26;20229;-74
2024/04/10 06:19:33;;;;;;;14.33;5.30;;;9.50;99.90;;;;;;5378937;26;20427;-73
2024/04/10 06:21:58;;;;;;;12.57;4.60;;;9.60;99.90;;;;;;5378581;26;20225;-74
2024/04/10 06:24:24;;;;;;;9.70;4.30;;;9.60;99.90;;;;;;5378920;26;20230;-73
2024/04/10 06:26:50;;;;;;;9.23;4.40;;;9.60;99.90;;;;;;5379463;26;20724;-75
2024/04/10 06:29:15;;;;;;;9.27;4.80;;;9.70;99.90;;;;;;5379614;26;20281;-74
2024/04/10 06:31:41;;;;;;;11.93;4.70;;;9.80;99.90;;;;;;5379002;26;20251;-75
2024/04/10 06:34:07;;;;;;;10.10;4.57;;;9.90;99.90;;;;;;5378737;26;20268;-74
2024/04/10 06:36:33;;;;;;;13.03;4.83;;;10.10;99.90;;;;;;5379259;26;20363;-74
2024/04/10 06:38:58;;;;;;;10.00;4.30;;;10.20;99.90;;;;;;5378363;26;20225;-74
2024/04/10 06:41:25;;;;;;;12.60;5.07;;;10.20;99.90;;;;;;5378169;26;20641;-72
2024/04/10 06:43:51;;;;;;;11.03;4.90;;;10.20;99.90;;;;;;5378361;26;20288;-74
2024/04/10 06:46:17;;;;;;;13.33;4.50;;;10.20;99.90;;;;;;5380667;26;20685;-74
2024/04/10 06:48:44;;;;;;;10.70;4.53;;;10.30;99.90;;;;;;5381692;26;20226;-74
2024/04/10 06:51:10;;;;;;;10.80;3.93;;;10.40;99.90;;;;;;5382118;26;20217;-74
2024/04/10 06:53:36;;;;;;;10.67;4.63;;;10.50;99.90;;;;;;5381943;26;20273;-75
2024/04/10 06:56:03;;;;;;;10.80;4.73;;;10.70;99.90;;;;;;5381444;26;20583;-74
2024/04/10 06:58:30;;;;;;;7.50;4.20;;;10.70;99.90;;;;;;5382076;26;20221;-74
2024/04/10 07:00:57;;;;;;;17.43;5.53;;;10.70;99.90;;;;;;5381899;26;20237;-74
2024/04/10 07:03:26;;;;;;;16.10;5.13;;;10.80;99.90;;;;;;5381569;26;20237;-73
2024/04/10 07:06:19;;;;;;;12.13;4.83;;;10.80;99.90;;;;;;5382057;26;20213;-73
2024/04/10 07:08:49;;;;;;;12.23;4.63;;;10.80;99.90;;;;;;5381815;26;20272;-74
2024/04/10 07:11:17;;;;;;;9.23;5.33;;;10.80;99.90;;;;;;5381743;26;20225;-74
2024/04/10 07:13:44;;;;;;;6.97;4.67;;;10.90;99.90;;;;;;5381742;26;20347;-70
2024/04/10 07:16:10;;;;;;;10.03;5.80;;;11.00;99.90;;;;;;5382258;26;20556;-74
2024/04/10 07:18:35;;;;;;;14.00;5.27;;;11.10;99.90;;;;;;5381851;26;20237;-74
2024/04/10 07:21:02;;;;;;;10.63;4.77;;;11.20;99.90;;;;;;5381919;26;20213;-73
2024/04/10 07:23:27;;;;;;;16.37;5.30;;;11.60;99.90;;;;;;5381367;26;20229;-74
2024/04/10 07:25:53;;;;;;;8.97;4.40;;;11.70;99.90;;;;;;5381656;26;20691;-74
2024/04/10 07:28:19;;;;;;;10.03;4.60;;;11.80;99.90;;;;;;5381283;26;20225;-74
2024/04/10 07:30:49;;;;;;;14.60;4.80;;;11.70;99.90;;;;;;5381508;26;20259;-74
2024/04/10 07:33:14;;;;;;;13.57;4.57;;;11.70;99.90;;;;;;5381289;26;20303;-75
2024/04/10 07:35:40;;;;;;;11.37;4.33;;;11.70;99.90;;;;;;5381471;26;20285;-74
2024/04/10 07:38:06;;;;;;;9.87;4.53;;;11.60;99.90;;;;;;5381433;26;20259;-75
2024/04/10 07:40:31;;;;;;;10.40;4.37;;;11.60;99.90;;;;;;5381900;26;20260;-74
2024/04/10 07:42:57;;;;;;;9.93;4.57;;;11.70;99.90;;;;;;5382344;26;20268;-74
2024/04/10 07:45:27;;;;;;;13.77;5.30;;;11.70;99.90;;;;;;5382395;26;20697;-74
2024/04/10 07:47:52;;;;;;;14.17;4.97;;;11.80;99.90;;;;;;5382102;26;20553;-74
2024/04/10 07:50:19;;;;;;;21.13;4.87;;;11.80;99.90;;;;;;5378407;26;20237;-75
2024/04/10 07:52:44;;;;;;;17.60;4.40;;;11.90;99.90;;;;;;5381357;26;20221;-74
2024/04/10 07:55:10;;;;;;;13.77;5.10;;;11.90;99.90;;;;;;5381361;26;20263;-74
2024/04/10 07:57:35;;;;;;;8.97;4.83;;;12.00;99.90;;;;;;5380625;26;20260;-75
2024/04/10 08:00:01;;;;;;;15.67;5.17;;;12.00;99.90;;;;;;5381245;26;20213;-75
2024/04/10 08:02:27;;;;;;;8.43;4.77;;;12.20;99.90;;;;;;5381132;26;20221;-75
2024/04/10 08:04:53;;;;;;;7.83;4.27;;;12.30;99.90;;;;;;5381232;26;20212;-75
2024/04/10 08:07:19;;;;;;;10.73;4.50;;;12.50;99.90;;;;;;5380390;26;20217;-74
2024/04/10 08:09:44;;;;;;;12.03;4.40;;;12.70;99.90;;;;;;5381332;26;20651;-75
2024/04/10 08:12:10;;;;;;;11.03;4.53;;;13.00;99.90;;;;;;5380903;26;20217;-73
2024/04/10 08:14:35;;;;;;;11.37;4.40;;;13.20;99.90;;;;;;5381122;26;20568;-75
2024/04/10 08:17:01;;;;;;;9.63;4.00;;;13.20;99.90;;;;;;5380779;26;20256;-76
2024/04/10 08:19:26;;;;;;;8.97;4.43;;;13.30;99.90;;;;;;5381072;26;20269;-73
2024/04/10 08:21:52;;;;;;;7.73;4.47;;;13.50;99.90;;;;;;5380812;26;20217;-74
2024/04/10 08:24:18;;;;;;;9.27;4.17;;;13.70;99.90;;;;;;5380723;26;20252;-75
2024/04/10 08:26:43;;;;;;;11.87;4.80;;;13.90;99.90;;;;;;5381198;26;20217;-75
2024/04/10 08:29:09;;;;;;;10.43;4.10;;;14.20;99.90;;;;;;5381417;26;20252;-74
2024/04/10 08:31:35;;;;;;;14.43;4.27;;;14.60;99.90;;;;;;5381028;26;20217;-75
2024/04/10 08:34:00;;;;;;;8.43;3.80;;;14.80;99.90;;;;;;5380426;26;20217;-75
2024/04/10 08:36:27;;;;;;;12.70;4.20;;;14.80;99.90;;;;;;5381130;26;20213;-75
2024/04/10 08:38:53;;;;;;;7.37;3.90;;;14.80;99.90;;;;;;5380632;26;20521;-74
2024/04/10 08:41:20;;;;;;;11.40;3.93;;;15.00;99.90;;;;;;5380821;26;20693;-75
2024/04/10 08:43:48;;;;;;;9.93;3.73;;;15.10;99.90;;;;;;5380755;26;20296;-76
2024/04/10 08:46:16;;;;;;;10.10;3.80;;;15.40;99.90;;;;;;5380695;26;20290;-75
2024/04/10 08:48:43;;;;;;;7.70;4.30;;;15.60;99.90;;;;;;5380737;26;20213;-75
2024/04/10 08:51:13;;;;;;;6.33;3.67;;;15.80;99.90;;;;;;5380802;26;20314;-75
2024/04/10 08:53:41;;;;;;;7.50;3.60;;;16.00;99.90;;;;;;5380643;26;20739;-75
2024/04/10 08:56:06;;;;;;;8.75;4.32;;;16.10;99.90;;;;;;5380531;26;20206;-72
2024/04/10 08:58:32;;;;;;;7.22;3.35;;;16.40;99.90;;;;;;5408330;26;20611;-75
2024/04/10 09:00:59;;;;;;;10.23;3.72;;;16.50;99.90;;;;;;5380717;26;20213;-73
2024/04/10 09:03:25;;;;;;;8.25;3.55;;;16.50;99.90;;;;;;5380656;26;20300;-75
2024/04/10 09:05:50;;;;;;;9.50;3.17;;;16.50;99.90;;;;;;5380056;26;20206;-75
2024/04/10 09:08:16;;;;;;;10.40;3.83;;;16.10;99.90;;;;;;5378992;26;20271;-75
2024/04/10 09:10:42;;;;;;;10.50;3.83;;;15.80;99.90;;;;;;5408228;26;20302;-75
2024/04/10 09:13:09;;;;;;;5.87;3.30;;;15.80;99.90;;;;;;5379942;26;20561;-74
2024/04/10 09:15:36;;;;;;;8.90;3.83;;;15.60;99.90;;;;;;5380232;26;20285;-75
2024/04/10 09:18:03;;;;;;;9.07;3.40;;;15.50;99.90;;;;;;5380539;26;20578;-72
2024/04/10 09:20:29;;;;;;;6.87;3.40;;;16.00;99.90;;;;;;5379766;26;20546;-74
2024/04/10 09:23:05;;;;;;;10.30;3.97;;;16.40;99.90;;;;;;5380570;26;20263;-74
2024/04/10 09:25:32;;;;;;;8.50;3.30;;;16.60;99.90;;;;;;5380077;26;20252;-74
2024/04/10 09:28:07;;;;;;;8.07;3.30;;;16.80;99.90;;;;;;5379714;26;20270;-74
2024/04/10 09:30:37;;;;;;;8.33;3.80;;;17.20;99.90;;;;;;5379836;26;20208;-75
2024/04/10 09:33:04;;;;;;;7.70;3.37;;;17.50;99.90;;;;;;5379897;26;20733;-71
2024/04/10 09:35:30;;;;;;;4.60;2.88;;;17.80;99.90;;;;;;5407687;26;20283;-73
2024/04/10 09:37:59;;;;;;;9.73;3.67;;;17.80;99.90;;;;;;5379721;26;20261;-74
2024/04/10 09:40:27;;;;;;;8.00;3.23;;;17.70;99.60;;;;;;5379760;26;20214;-73
2024/04/10 09:43:05;;;;;;;7.57;3.83;;;17.60;99.60;;;;;;5380401;26;20603;-72
2024/04/10 09:45:37;;;;;;;6.27;3.50;;;17.60;99.90;;;;;;5380123;26;20565;-75
2024/04/10 09:48:08;;;;;;;9.37;3.77;;;17.60;99.60;;;;;;5379754;26;20284;-72
2024/04/10 09:50:36;;;;;;;3.72;3.42;;;17.50;98.80;;;;;;5380008;26;20221;-74
2024/04/10 09:53:03;;;;;;;6.77;3.40;;;17.30;98.20;;;;;;5379869;26;20233;-72
2024/04/10 09:55:32;;;;;;;6.03;3.43;;;17.10;98.20;;;;;;5379762;26;20267;-75
2024/04/10 09:57:59;;;;;;;8.17;3.37;;;16.90;99.50;;;;;;5379680;26;20217;-74
2024/04/10 10:00:25;;;;;;;6.53;2.97;;;17.00;97.90;;;;;;5379738;26;20217;-72
2024/04/10 10:03:09;;;;;;;6.93;2.93;;;16.80;98.10;;;;;;5379754;26;20758;-74
2024/04/10 10:05:35;;;;;;;8.17;3.67;;;16.60;99.80;;;;;;5407134;26;20873;-76
2024/04/10 10:08:12;;;;;;;5.80;3.27;;;16.70;99.60;;;;;;5379536;26;20201;-75
2024/04/10 10:10:49;;;;;;;9.43;3.50;;;16.80;99.90;;;;;;5379942;26;20209;-75
2024/04/10 10:13:34;;;;;;;7.50;3.60;;;16.70;99.90;;;;;;5379748;26;20233;-75
2024/04/10 10:16:02;;;;;;;8.80;4.07;;;16.80;99.90;;;;;;5380121;26;20757;-75
2024/04/10 10:18:29;;;;;;;9.27;3.95;;;17.30;99.90;;;;;;5379081;26;20217;-76
2024/04/10 10:21:05;;;;;;;5.13;3.10;;;17.60;99.90;;;;;;5379390;26;20255;-76
2024/04/10 10:23:32;;;;;;;6.35;2.88;;;18.20;99.90;;;;;;5407017;26;20252;-74
2024/04/10 10:25:57;;;;;;;7.00;2.70;;;18.40;97.30;;;;;;5379768;26;20263;-75
2024/04/10 10:28:23;;;;;;;7.88;2.78;;;18.40;95.10;;;;;;5379266;26;20217;-75
2024/04/10 10:30:49;;;;;;;5.45;2.85;;;18.60;93.10;;;;;;5379423;26;20265;-75
2024/04/10 10:33:18;;;;;;;5.07;2.60;;;18.60;94.30;;;;;;5378745;26;20632;-75
2024/04/10 10:35:44;;;;;;;5.32;2.67;;;18.40;91.20;;;;;;5379171;26;20213;-73
2024/04/10 10:38:09;;;;;;;5.93;3.00;;;18.30;90.20;;;;;;5378942;26;20434;-74
2024/04/10 10:40:35;;;;;;;4.55;2.60;;;18.50;89.60;;;;;;5379177;26;20759;-74
2024/04/10 10:43:03;;;;;;;6.07;3.10;;;18.70;86.90;;;;;;5379391;26;20247;-74
2024/04/10 10:45:30;;;;;;;5.88;2.72;;;18.80;84.90;;;;;;5379155;26;20225;-75
2024/04/10 10:47:55;;;;;;;6.00;2.65;;;18.70;83.60;;;;;;5379223;26;20693;-75
2024/04/10 10:50:21;;;;;;;7.22;2.92;;;18.90;88.20;;;;;;5379471;26;20255;-74
2024/04/10 10:52:47;;;;;;;4.55;2.70;;;19.10;82.10;;;;;;5379379;26;20222;-73
2024/04/10 10:55:14;;;;;;;6.88;2.83;;;19.20;80.60;;;;;;5379299;26;20698;-75
2024/04/10 10:57:39;;;;;;;7.18;2.80;;;19.30;90.10;;;;;;5378815;26;20251;-75
2024/04/10 11:00:16;;;;;;;5.45;2.67;;;19.40;76.90;;;;;;5378814;26;20213;-74
2024/04/10 11:02:43;;;;;;;5.07;2.80;;;18.90;77.50;;;;;;5378987;26;20285;-76
2024/04/10 11:05:12;;;;;;;4.38;2.55;;;18.70;77.90;;;;;;5378413;26;20214;-71
2024/04/10 11:07:38;;;;;;;4.80;2.80;;;18.70;76.30;;;;;;5378705;26;20293;-76
2024/04/10 11:10:11;;;;;;;6.50;2.90;;;18.70;80.80;;;;;;5378829;26;20249;-75
2024/04/10 11:12:37;;;;;;;7.80;3.13;;;18.80;78.90;;;;;;5378894;26;20272;-75
2024/04/10 11:15:10;;;;;;;4.60;2.65;;;19.00;84.10;;;;;;5378686;26;20754;-72
2024/04/10 11:17:37;;;;;;;6.80;3.05;;;19.00;71.70;;;;;;5378597;26;20209;-75
2024/04/10 11:20:11;;;;;;;8.65;3.10;;;18.30;72.90;;;;;;5407452;26;20251;-75
2024/04/10 11:22:39;;;;;;;5.88;2.80;;;17.90;74.50;;;;;;5378612;26;20266;-73
2024/04/10 11:25:05;;;;;;;6.38;3.20;;;17.70;74.30;;;;;;5378619;26;20267;-71
2024/04/10 11:27:31;;;;;;;7.28;3.13;;;17.90;74.60;;;;;;5378158;26;20579;-75
2024/04/10 11:29:58;;;;;;;8.38;3.53;;;18.20;74.00;;;;;;5378742;26;20218;-73
2024/04/10 11:32:24;;;;;;;7.40;3.60;;;18.70;76.50;;;;;;5381126;26;20413;-75
2024/04/10 11:34:49;;;;;;;7.35;3.08;;;19.00;75.30;;;;;;5382593;26;20210;-75
2024/04/10 11:37:15;;;;;;;4.90;2.45;;;19.30;75.30;;;;;;5381720;26;20555;-75
2024/04/10 11:39:40;;;;;;;4.80;2.60;;;19.90;81.00;;;;;;5381579;26;20213;-75
2024/04/10 11:42:06;;;;;;;6.90;2.80;;;20.50;73.50;;;;;;5381873;26;20225;-74
2024/04/10 11:44:32;;;;;;;7.38;2.55;;;21.00;73.90;;;;;;5382760;26;20205;-74
2024/04/10 11:46:57;;;;;;;9.88;3.42;;;20.80;67.20;;;;;;5383185;26;20209;-75
2024/04/10 11:49:23;;;;;;;4.90;3.00;;;20.20;63.80;;;;;;5381710;26;20213;-75
2024/04/10 11:51:48;;;;;;;5.38;3.00;;;19.10;63.90;;;;;;5382241;26;20225;-75
2024/04/10 11:54:14;;;;;;;6.90;2.97;;;18.90;67.50;;;;;;5382646;26;20260;-76
2024/04/10 11:56:39;;;;;;;8.18;2.85;;;18.90;68.90;;;;;;5382055;26;20267;-75
2024/04/10 11:59:05;;;;;;;5.78;3.10;;;19.20;66.20;;;;;;5409202;26;20674;-76
2024/04/10 12:01:31;;;;;;;7.55;2.70;;;19.20;67.50;;;;;;5381080;26;20317;-75
2024/04/10 12:03:57;;;;;;;6.60;3.10;;;19.30;70.50;;;;;;5381122;26;20628;-75
2024/04/10 12:06:22;;;;;;;5.13;2.60;;;19.50;65.80;;;;;;5381415;26;20256;-75
2024/04/10 12:08:48;;;;;;;3.58;2.60;;;19.00;65.70;;;;;;5381318;26;20577;-75
2024/04/10 12:11:13;;;;;;;10.63;3.08;;;18.60;63.40;;;;;;5381364;26;20259;-76
2024/04/10 12:13:40;;;;;;;5.82;2.85;;;18.20;68.40;;;;;;5381105;26;20311;-75
2024/04/10 12:16:07;;;;;;;6.13;2.75;;;18.20;66.50;;;;;;5380958;26;20217;-76
2024/04/10 12:18:32;;;;;;;3.83;2.50;;;18.50;70.40;;;;;;5381279;26;20213;-76
2024/04/10 12:20:58;;;;;;;5.43;2.70;;;18.70;61.60;;;;;;5381931;26;20692;-76
2024/04/10 12:23:25;;;;;;;5.15;2.70;;;18.40;65.50;;;;;;5380711;26;20217;-74
2024/04/10 12:25:51;;;;;;;4.28;2.42;;;18.60;62.90;;;;;;5381080;26;20213;-73
2024/04/10 12:28:17;;;;;;;5.93;2.60;;;18.50;57.70;;;;;;5380856;26;20755;-73
2024/04/10 12:30:42;;;;;;;5.20;2.60;;;18.20;57.80;;;;;;5380984;26;20226;-74
2024/04/10 12:33:08;;;;;;;6.37;2.73;;;17.70;58.10;;;;;;5380959;26;20272;-75
2024/04/10 12:38:19;;;;;;;4.47;2.77;;;17.50;60.40;;;;;;5380747;26;20252;-75
2024/04/10 12:40:55;;;;;;;7.30;2.95;;;17.70;63.30;;;;;;5381318;26;20214;-73
2024/04/10 12:43:20;;;;;;;3.33;2.35;;;18.00;60.00;;;;;;5380642;26;20224;-72
2024/04/10 12:45:46;;;;;;;4.28;2.63;;;18.00;60.20;;;;;;5380673;26;20786;-73